createdAt,value
2023-03-23T15:58:32.082Z,12.10
2023-03-23T16:00:07.294Z,12.10
2023-03-23T16:01:45.302Z,12.10
2023-03-23T16:03:27.458Z,12.00
2023-03-23T16:05:01.709Z,12.10
2023-03-23T16:06:37.006Z,12.10
2023-03-23T16:08:12.611Z,12.00
2023-03-23T16:09:45.979Z,12.10
2023-03-23T16:11:20.348Z,12.00
2023-03-23T16:12:53.808Z,12.10
2023-03-23T16:14:27.108Z,12.00
2023-03-23T16:16:00.197Z,12.00
2023-03-23T16:17:34.023Z,12.00
2023-03-23T16:19:10.206Z,12.00
2023-03-23T16:20:43.603Z,12.00
2023-03-23T16:22:18.454Z,11.90
2023-03-23T16:23:51.764Z,11.90
2023-03-23T16:25:24.872Z,11.90
2023-03-23T16:26:57.985Z,11.90
2023-03-23T16:28:31.493Z,11.90
2023-03-23T16:30:15.474Z,11.90
2023-03-23T16:31:48.528Z,11.90
2023-03-23T16:33:22.387Z,11.90
2023-03-23T16:34:57.045Z,11.90
2023-03-23T16:36:30.289Z,11.90
2023-03-23T16:38:08.295Z,11.90
2023-03-23T16:39:42.380Z,11.90
2023-03-23T16:41:16.179Z,11.90
2023-03-23T16:42:50.562Z,12.00
2023-03-23T16:44:24.074Z,11.90
2023-03-23T16:45:58.658Z,12.00
2023-03-23T16:47:32.174Z,12.00
2023-03-23T16:49:05.669Z,12.00
2023-03-23T16:50:40.628Z,12.00
2023-03-23T16:52:13.817Z,12.00
2023-03-23T16:53:46.969Z,11.90
2023-03-23T16:55:20.233Z,11.90
2023-03-23T16:56:56.467Z,11.90
2023-03-23T16:58:29.718Z,11.90
2023-03-23T17:00:02.944Z,11.90
2023-03-23T17:01:39.210Z,11.90
2023-03-23T17:03:13.327Z,11.90
2023-03-23T17:04:48.007Z,11.90
2023-03-23T17:06:25.118Z,11.90
2023-03-23T17:07:58.671Z,11.90
2023-03-23T17:09:31.849Z,11.80
2023-03-23T17:11:05.321Z,11.80
2023-03-23T17:12:38.897Z,11.80
2023-03-23T17:14:12.292Z,11.80
2023-03-23T17:15:47.222Z,11.80
2023-03-23T17:17:21.036Z,11.80
2023-03-23T17:18:54.162Z,11.80
2023-03-23T17:20:27.795Z,11.80
2023-03-23T17:22:02.461Z,11.80
2023-03-23T17:23:36.168Z,11.70
2023-03-23T17:25:10.817Z,11.70
2023-03-23T17:26:44.091Z,11.70
2023-03-23T17:28:19.567Z,11.70
2023-03-23T17:29:54.003Z,11.70
2023-03-23T17:31:27.270Z,11.60
2023-03-23T17:33:00.858Z,11.60
2023-03-23T17:34:34.403Z,11.60
2023-03-23T17:36:08.731Z,11.60
2023-03-23T17:37:43.624Z,11.50
2023-03-23T17:39:17.267Z,11.50
2023-03-23T17:40:58.311Z,11.50
2023-03-23T17:42:31.621Z,11.50
2023-03-23T17:44:04.913Z,11.40
2023-03-23T17:45:38.321Z,11.40
2023-03-23T17:47:12.038Z,11.40
2023-03-23T17:48:45.319Z,11.30
2023-03-23T17:50:18.497Z,11.30
2023-03-23T17:51:51.815Z,11.30
2023-03-23T17:53:27.416Z,11.30
2023-03-23T17:55:00.604Z,11.20
2023-03-23T17:56:34.013Z,11.20
2023-03-23T17:58:07.168Z,11.20
2023-03-23T17:59:40.450Z,11.20
2023-03-23T18:01:13.832Z,11.10
2023-03-23T18:02:47.234Z,11.10
2023-03-23T18:04:21.041Z,11.10
2023-03-23T18:05:59.790Z,11.10
2023-03-23T18:07:32.961Z,11.00
2023-03-23T18:09:07.502Z,11.00
2023-03-23T18:10:42.173Z,11.00
2023-03-23T18:12:15.460Z,11.00
2023-03-23T18:13:48.602Z,10.90
2023-03-23T18:15:21.825Z,10.90
2023-03-23T18:17:02.117Z,10.90
2023-03-23T18:18:35.800Z,10.90
2023-03-23T18:20:10.158Z,10.90
2023-03-23T18:21:45.682Z,10.80
2023-03-23T18:23:19.155Z,10.80
2023-03-23T18:24:54.175Z,10.80
2023-03-23T18:26:27.308Z,10.80
2023-03-23T18:28:04.579Z,10.70
2023-03-23T18:29:38.799Z,10.70
2023-03-23T18:31:17.301Z,10.70
2023-03-23T18:32:50.515Z,10.70
2023-03-23T18:34:24.229Z,10.70
2023-03-23T18:35:59.766Z,10.60
2023-03-23T18:37:34.355Z,10.60
2023-03-23T18:39:10.549Z,10.60
2023-03-23T18:40:46.451Z,10.50
2023-03-23T18:42:19.668Z,10.50
2023-03-23T18:43:53.946Z,10.50
2023-03-23T18:45:28.527Z,10.50
2023-03-23T18:47:01.931Z,10.40
2023-03-23T18:48:36.002Z,10.40
2023-03-23T18:50:11.845Z,10.40
2023-03-23T18:51:45.041Z,10.30
2023-03-23T18:53:19.959Z,10.30
2023-03-23T18:54:53.615Z,10.30
2023-03-23T18:56:28.279Z,10.20
2023-03-23T18:58:02.615Z,10.20
2023-03-23T18:59:35.881Z,10.20
2023-03-23T19:01:12.153Z,10.20
2023-03-23T19:02:46.063Z,10.20
2023-03-23T19:04:25.359Z,10.10
2023-03-23T19:06:00.565Z,10.10
2023-03-23T19:07:34.267Z,10.10
2023-03-23T19:09:07.408Z,10.00
2023-03-23T19:10:43.045Z,10.00
2023-03-23T19:12:17.801Z,9.90
2023-03-23T19:14:01.273Z,9.90
2023-03-23T19:15:39.777Z,9.80
2023-03-23T19:17:13.188Z,9.80
2023-03-23T19:18:46.263Z,9.80
2023-03-23T19:20:31.666Z,9.80
2023-03-23T19:22:13.212Z,9.80
2023-03-23T19:23:46.582Z,9.70
2023-03-23T19:25:20.363Z,9.70
2023-03-23T19:26:54.103Z,9.60
2023-03-23T19:30:06.685Z,9.60
2023-03-23T19:31:40.136Z,9.50
2023-03-23T19:33:14.048Z,9.50
2023-03-23T19:34:51.089Z,9.50
2023-03-23T19:36:26.687Z,9.40
2023-03-23T19:37:59.926Z,9.40
2023-03-23T19:39:34.493Z,9.40
2023-03-23T19:41:08.054Z,9.30
2023-03-23T19:42:42.229Z,9.30
2023-03-23T19:44:17.927Z,9.30
2023-03-23T19:45:51.488Z,9.20
2023-03-23T19:47:24.651Z,9.20
2023-03-23T19:48:58.238Z,9.10
2023-03-23T19:50:33.351Z,9.10
2023-03-23T19:52:12.610Z,9.10
2023-03-23T19:53:48.668Z,9.10
2023-03-23T19:55:21.356Z,9.00
2023-03-23T19:56:55.366Z,9.10
2023-03-23T19:58:28.628Z,9.00
2023-03-23T20:00:03.292Z,8.90
2023-03-23T20:01:38.415Z,8.90
2023-03-23T20:03:12.971Z,8.90
2023-03-23T20:04:46.775Z,8.90
2023-03-23T20:06:20.492Z,8.80
2023-03-23T20:07:55.518Z,8.80
2023-03-23T20:09:28.777Z,8.80
2023-03-23T20:11:05.499Z,8.80
2023-03-23T20:12:38.807Z,8.80
2023-03-23T20:14:12.103Z,8.70
2023-03-23T20:15:53.065Z,8.70
2023-03-23T20:17:26.901Z,8.70
2023-03-23T20:19:00.608Z,8.70
2023-03-23T20:20:36.567Z,8.60
2023-03-23T20:22:08.910Z,8.60
2023-03-23T20:23:44.584Z,8.60
2023-03-23T20:25:17.925Z,8.60
2023-03-23T20:26:51.161Z,8.50
2023-03-23T20:28:24.868Z,8.50
2023-03-23T20:29:58.062Z,8.50
2023-03-23T20:31:36.769Z,8.50
2023-03-23T20:33:10.489Z,8.40
2023-03-23T20:34:48.899Z,8.40
2023-03-23T20:36:22.460Z,8.40
2023-03-23T20:37:55.757Z,8.40
2023-03-23T20:39:31.553Z,8.40
2023-03-23T20:41:11.207Z,8.40
2023-03-23T20:42:44.359Z,8.40
2023-03-23T20:44:23.329Z,8.30
2023-03-23T20:45:58.341Z,8.30
2023-03-23T20:47:33.136Z,8.30
2023-03-23T20:49:06.469Z,8.30
2023-03-23T20:50:39.595Z,8.30
2023-03-23T20:52:14.214Z,8.30
2023-03-23T20:53:48.397Z,8.20
2023-03-23T20:55:21.712Z,8.20
2023-03-23T20:56:57.536Z,8.20
2023-03-23T20:58:31.295Z,8.20
2023-03-23T21:00:06.563Z,8.10
2023-03-23T21:01:40.405Z,8.10
2023-03-23T21:03:16.196Z,8.10
2023-03-23T21:04:52.631Z,8.10
2023-03-23T21:06:28.495Z,8.10
2023-03-23T21:08:01.776Z,8.10
2023-03-23T21:09:35.621Z,8.10
2023-03-23T21:11:20.749Z,8.00
2023-03-23T21:12:54.040Z,8.00
2023-03-23T21:14:27.745Z,8.00
2023-03-23T21:16:04.198Z,8.00
2023-03-23T21:17:37.606Z,8.00
2023-03-23T21:19:13.022Z,8.00
2023-03-23T21:20:47.491Z,8.00
2023-03-23T21:22:21.386Z,8.00
2023-03-23T21:23:55.755Z,8.00
2023-03-23T21:25:34.067Z,8.00
2023-03-23T21:27:08.628Z,8.00
2023-03-23T21:28:42.294Z,7.90
2023-03-23T21:30:16.102Z,8.00
2023-03-23T21:31:55.010Z,7.90
2023-03-23T21:33:38.284Z,8.00
2023-03-23T21:35:12.949Z,7.90
2023-03-23T21:36:46.376Z,8.00
2023-03-23T21:38:19.835Z,8.00
2023-03-23T21:39:53.132Z,8.00
2023-03-23T21:41:27.072Z,8.00
2023-03-23T21:43:00.627Z,8.00
2023-03-23T21:44:35.463Z,8.00
2023-03-23T21:46:10.243Z,8.00
2023-03-23T21:47:43.443Z,8.00
2023-03-23T21:49:16.812Z,8.10
2023-03-23T21:50:51.572Z,8.10
2023-03-23T21:52:25.289Z,8.10
2023-03-23T21:53:59.205Z,8.10
2023-03-23T21:55:33.544Z,8.10
2023-03-23T21:57:06.802Z,8.20
2023-03-23T21:58:40.784Z,8.20
2023-03-23T22:00:15.727Z,8.20
2023-03-23T22:01:49.778Z,8.20
2023-03-23T22:03:42.240Z,8.30
2023-03-23T22:05:34.110Z,8.30
2023-03-23T22:07:12.502Z,8.30
2023-03-23T22:08:47.537Z,8.40
2023-03-23T22:10:23.253Z,8.40
2023-03-23T22:11:56.341Z,8.40
2023-03-23T22:13:30.527Z,8.50
2023-03-23T22:15:03.804Z,8.50
2023-03-23T22:16:37.105Z,8.50
2023-03-23T22:18:10.530Z,8.60
2023-03-23T22:19:43.862Z,8.60
2023-03-23T22:21:19.406Z,8.60
2023-03-23T22:22:54.290Z,8.60
2023-03-23T22:24:27.457Z,8.70
2023-03-23T22:26:01.778Z,8.70
2023-03-23T22:27:34.977Z,8.70
2023-03-23T22:29:11.016Z,8.80
2023-03-23T22:30:43.694Z,8.80
2023-03-23T22:32:17.135Z,8.80
2023-03-23T22:33:54.027Z,8.90
2023-03-23T22:35:28.344Z,8.80
2023-03-23T22:37:01.988Z,8.90
2023-03-23T22:38:38.673Z,9.00
2023-03-23T22:40:12.380Z,8.90
2023-03-23T22:41:45.572Z,9.00
2023-03-23T22:43:17.912Z,9.00
2023-03-23T22:44:51.049Z,9.00
2023-03-23T22:46:25.758Z,9.00
2023-03-23T22:47:59.665Z,9.10
2023-03-23T22:49:33.622Z,9.10
2023-03-23T22:51:07.858Z,9.20
2023-03-23T22:52:41.259Z,9.20
2023-03-23T22:54:15.775Z,9.20
2023-03-23T22:55:51.951Z,9.20
2023-03-23T22:57:25.172Z,9.20
2023-03-23T22:59:00.055Z,9.30
2023-03-23T23:00:32.560Z,9.30
2023-03-23T23:02:06.474Z,9.30
2023-03-23T23:03:40.544Z,9.40
2023-03-23T23:05:14.520Z,9.40
2023-03-23T23:06:48.300Z,9.50
2023-03-23T23:08:22.508Z,9.40
2023-03-23T23:09:56.948Z,9.50
2023-03-23T23:11:31.109Z,9.50
2023-03-23T23:13:04.198Z,9.50
2023-03-23T23:14:38.906Z,9.60
2023-03-23T23:16:17.047Z,9.60
2023-03-23T23:17:50.654Z,9.60
2023-03-23T23:19:24.440Z,9.70
2023-03-23T23:20:59.753Z,9.70
2023-03-23T23:22:33.181Z,9.70
2023-03-23T23:24:07.379Z,9.70
2023-03-23T23:25:41.849Z,9.80
2023-03-23T23:27:15.481Z,9.70
2023-03-23T23:28:49.972Z,9.80
2023-03-23T23:30:23.213Z,9.80
2023-03-23T23:31:56.297Z,9.80
2023-03-23T23:33:29.686Z,9.80
2023-03-23T23:35:03.904Z,9.90
2023-03-23T23:36:37.486Z,9.90
2023-03-23T23:38:12.442Z,9.90
2023-03-23T23:39:46.068Z,9.90
2023-03-23T23:41:19.615Z,9.90
2023-03-23T23:42:53.872Z,10.00
2023-03-23T23:44:27.181Z,10.00
2023-03-23T23:46:00.350Z,10.00
2023-03-23T23:47:33.496Z,10.00
2023-03-23T23:49:06.956Z,10.00
2023-03-23T23:50:40.090Z,10.00
2023-03-23T23:52:13.279Z,10.00
2023-03-23T23:53:53.710Z,10.10
2023-03-23T23:55:28.254Z,10.10
2023-03-23T23:57:02.750Z,10.10
2023-03-23T23:58:36.098Z,10.10
